Airfield :
LOGIN :

Register | Disclaimer

   EN    FR    IT 

 










Legend :    VFR   Marginal VFR   IFR   Intensive IFR   Very Intensive IFR
Visi :
Ceiling :
>= 8 km
>= 3000ft
5 to 8 km
1000 to 3000 ft
1500m to 5 km
500 to 1000 ft
800 to 1500m
200 to 500 ft
< 800m
< 200 ft
Symbols :   Thunderstorms  Fog  Heavy snow  Heavy precipitations  Wind > 20 kt
SIGMETs :     Misc.  Thunderstorms  Icing  Turbulence  Mountain Waves  Volcanic Ashes







- Airport Elevation : 1411 ft
- IATA code : SZG


LOWS - Salzburg

CURRENT METAR :
  • 121250Z 21006KT 5000 -SN BR FEW005 SCT010 BKN020 M00/M01 Q1021 TEMPO 4000

EXPIRED METARs :
  • 121220Z 22006KT 3200 -SN BR FEW005 SCT010 BKN020 M00/M01 Q1021 TEMPO 5000 NSW
  • 121150Z 21005KT 2500 -SN BR FEW003 SCT008 BKN016 M00/M01 Q1021 TEMPO 3500 SN
  • 121120Z 23004KT 190V250 2100 -SN BR FEW003 SCT006 BKN017 M00/M01 Q1021 NOSIG
  • 121050Z 22004KT 3000 -SN BR FEW005 SCT008 BKN016 M00/M01 Q1021 NOSIG
  • 121020Z 22006KT 170V250 2500 -SN BR FEW005 SCT010 BKN020 M00/M01 Q1021 TEMPO 4000

TAF TAF LOWS
Valid from the 12 at 12:00 until the 13 at 12:00 UTC


121115Z 1212/1312 25005KT 9999 -SHSN SCT010 BKN025 TX01/1212Z TNM03/1304Z
PROB40
TEMPO 1212/1215 30010KT 1400 SHSN SCT008 BKN012
BECMG 1217/1219 15005KT NSW
PROB30
TEMPO 1220/1308 3500 BR BKN010
BECMG 1310/1312 03005KT FEW010 SCT030
No reported NOTAMs for that airfield.



MET'MAP, your aeronautical weather chart ! - Copyright ORBIFLY December 2007 - Disclaimer

ORBIFLY MET'MAP TEAM :

Programming & Development : Alexandra Zaïnal
Concept & Development : Baudouin d'Aumeries
Co-Development & Prog : Marc-Olivier Méhu
Technical & hardware support : Manuel Goepfert

Contact : metmap@orbifly.com




SOURCES & CREDITS :

   NOAA